Montandon, PA (17850)

06:11 AM EDT del 01 Ottobre 2014 (GMT -0400)
Windsor at Lewisburg | Change Station
CLOSE
Current Station
Stazione meteo personale
Location: Lewisburg, PA
Altitudine: 545 ft
Stazioni meteo nelle vicinanze

Alt. 545 ft 40.94 °N, 76.89 °W | Updated 2 seconds ago

Coperto
Coperto
60.6 °F
Sembra 60.6 °F
N
0.0
Vento Variabile Vento da Est
Gusts 0.0 mph

Oggi
Massima -- | Minima -- °F
--% Possibilità di precip.
Ieri
Massima -- | Minima -- °F
Precip. -- in
7:03 AM 6:49 PM
Luna crescente, 46% visible
Pressione 29.98 in
Visibilità 2.5 miglia
Nuvole Molto nuvoloso 11000 ft
Punto di rugiada 60 °F
Umidità 97%
Piovosità -999.00 in
Spessore del manto nevoso Non disponibile.
Raggi UV 0 fuori da 12
Polline 2.40 fuori da 12
Qualità dell'aria Non disponibile.
Flu Activity Non disponibile.
METAR KSEG 010853Z AUTO 00000KT 2 1/2SM BR BKN110 15/14 A2998 RMK AO2 SLP151 60011 T01500144 58007

More Conditions Fewer Conditions

Pressione 29.98 in
Visibilità 2.5 miglia
Nuvole Molto nuvoloso 11000 ft
Punto di rugiada 60 °F
Umidità 97%
Piovosità -999.00 in
Spessore del manto nevoso Non disponibile.
Raggi UV 0 fuori da 12
Polline 2.40 fuori da 12
Qualità dell'aria Non disponibile.
Flu Activity Non disponibile.
METAR KSEG 010853Z AUTO 00000KT 2 1/2SM BR BKN110 15/14 A2998 RMK AO2 SLP151 60011 T01500144 58007

More Conditions Fewer Conditions

10-Day Weather Forecast

Almanac

Astronomia

Oct. 01, 2014 Alba Tramonto
Ora attuale 07:03 EDT 18:49 EDT
Crepuscolo civile 06:36 EDT 19:16 EDT
Crepuscolo nautico 06:04 EDT 19:48 EDT
Crepuscolo astronomico 05:32 EDT 20:20 EDT
Luna 14:05 EDT Nessun tramonto lunare
Estensione della luce visibile 12h 40m
Lunghezza del giorno
11h 45m
Tomorrow will be 2m 42s shorter.
Luna crescente, 46% of the Moon is Illuminated
Oggi
Luna crescente
Ott 1
Primo quarto
Ott 8
Luna piena
Ott 15
Ultimo quarto
Ott 23
Nuovo

Gli estremi di oggi

State Highs State Lows

Community

WunderPhotos

Upload Photos

1,757,905 foto caricate!

WunderBlogs® & News

Nearby

Profondità neve

Stazione Profondità Altitudine
Non sono state evidenziate nuove nevicate

Attività sismica

Città  Distanza Mag. Data & Ora
Non sono state riportate attività sismiche nelle vicinanze.
Minimo Magnitudo Mostrato è 2.5.

Temperature delle acque costiere

Località Temperatura
Nessun dato dalle stazioni

Stazioni meteo nelle vicinanze